createdAt,value
2022-10-03T00:00:30.484Z,93.66
2022-10-03T00:03:29.793Z,93.64
2022-10-03T00:06:08.675Z,93.78
2022-10-03T00:09:06.474Z,93.78
2022-10-03T00:11:47.129Z,93.69
2022-10-03T00:14:23.320Z,93.59
2022-10-03T00:16:59.736Z,93.45
2022-10-03T00:19:39.889Z,93.37
2022-10-03T00:22:24.156Z,93.25
2022-10-03T00:25:06.096Z,93.39
2022-10-03T00:27:41.771Z,93.19
2022-10-03T00:30:17.619Z,93.26
2022-10-03T00:33:03.898Z,93.29
2022-10-03T00:35:59.746Z,93.22
2022-10-03T00:38:53.058Z,93.44
2022-10-03T00:41:34.776Z,93.40
2022-10-03T00:44:37.522Z,93.48
2022-10-03T00:47:25.905Z,93.71
2022-10-03T00:50:06.415Z,93.60
2022-10-03T00:52:55.643Z,93.63
2022-10-03T00:55:35.581Z,93.75
2022-10-03T00:58:26.862Z,93.83
2022-10-03T01:01:05.274Z,93.96
2022-10-03T01:03:45.362Z,93.98
2022-10-03T01:06:27.485Z,93.90
2022-10-03T01:09:06.091Z,93.73
2022-10-03T01:11:50.463Z,93.87
2022-10-03T01:14:30.614Z,93.94
2022-10-03T01:17:10.826Z,94.06
2022-10-03T01:19:56.821Z,94.16
2022-10-03T01:22:46.372Z,94.48
2022-10-03T01:25:20.010Z,94.81
2022-10-03T01:28:18.944Z,94.74
2022-10-03T01:30:52.957Z,94.89
2022-10-03T01:33:29.896Z,94.99
2022-10-03T01:36:10.256Z,94.99
2022-10-03T01:38:47.045Z,95.10
2022-10-03T01:41:21.924Z,95.00
2022-10-03T01:43:55.274Z,95.18
2022-10-03T01:46:32.601Z,95.19
2022-10-03T01:49:07.084Z,95.35
2022-10-03T01:51:47.537Z,95.33
2022-10-03T01:54:23.332Z,95.47
2022-10-03T01:56:59.217Z,95.43
2022-10-03T01:59:40.946Z,95.44
2022-10-03T02:02:16.863Z,95.34
2022-10-03T02:04:57.624Z,95.39
2022-10-03T02:07:35.378Z,95.45
2022-10-03T02:10:13.033Z,95.33
2022-10-03T02:12:51.805Z,95.38
2022-10-03T02:15:27.781Z,95.36
2022-10-03T02:18:02.062Z,95.20
2022-10-03T02:20:40.350Z,95.19
2022-10-03T02:23:24.743Z,95.07
2022-10-03T02:26:05.738Z,94.99
2022-10-03T02:28:57.604Z,95.01
2022-10-03T02:32:06.826Z,95.12
2022-10-03T02:35:15.394Z,94.85
2022-10-03T02:38:14.160Z,94.96
2022-10-03T02:41:13.123Z,95.05
2022-10-03T02:44:14.139Z,95.03
2022-10-03T02:47:17.959Z,95.09
2022-10-03T02:50:05.128Z,95.06
2022-10-03T02:52:56.075Z,94.93
2022-10-03T02:55:46.709Z,94.83
2022-10-03T02:58:34.908Z,94.81
2022-10-03T03:01:39.034Z,94.78
2022-10-03T03:04:30.258Z,94.62
2022-10-03T03:07:17.649Z,94.47
2022-10-03T03:10:07.249Z,94.47
2022-10-03T03:13:15.723Z,94.18
2022-10-03T03:16:28.548Z,94.05
2022-10-03T03:19:11.907Z,93.90
2022-10-03T03:21:49.706Z,93.63
2022-10-03T03:24:32.339Z,93.61
2022-10-03T03:27:22.654Z,93.49
2022-10-03T03:30:02.630Z,93.43
2022-10-03T03:32:45.349Z,93.49
2022-10-03T03:35:22.534Z,93.33
2022-10-03T03:38:03.943Z,93.18
2022-10-03T03:40:44.979Z,93.23
2022-10-03T03:43:34.350Z,93.20
2022-10-03T03:46:22.230Z,93.10
2022-10-03T03:49:08.864Z,93.03
2022-10-03T03:51:50.037Z,93.02
2022-10-03T03:54:38.244Z,92.71
2022-10-03T03:57:21.286Z,92.25
2022-10-03T04:00:05.748Z,92.22
2022-10-03T04:03:02.607Z,92.20
2022-10-03T04:05:54.020Z,92.21
2022-10-03T04:08:38.112Z,91.98
2022-10-03T04:11:23.448Z,91.78
2022-10-03T04:14:27.811Z,91.69
2022-10-03T04:17:43.583Z,91.81
2022-10-03T04:20:25.574Z,91.96
2022-10-03T04:23:05.998Z,92.26
2022-10-03T04:25:56.690Z,92.49
2022-10-03T04:28:53.158Z,92.63
2022-10-03T04:31:40.583Z,92.79
2022-10-03T04:34:24.800Z,92.74
2022-10-03T04:37:09.015Z,92.83
2022-10-03T04:39:50.357Z,92.88
2022-10-03T04:42:40.194Z,92.80
2022-10-03T04:45:28.123Z,92.78
2022-10-03T04:48:06.982Z,92.90
2022-10-03T04:50:41.736Z,92.91
2022-10-03T04:53:25.916Z,93.10
2022-10-03T04:56:05.968Z,93.21
2022-10-03T04:58:40.515Z,93.24
2022-10-03T05:01:17.720Z,93.29
2022-10-03T05:04:01.728Z,93.55
2022-10-03T05:06:47.381Z,93.62
2022-10-03T05:09:31.970Z,93.75
2022-10-03T05:12:10.084Z,93.82
2022-10-03T05:14:57.077Z,93.97
2022-10-03T05:17:34.185Z,94.03
2022-10-03T05:20:19.712Z,94.01
2022-10-03T05:22:59.782Z,94.15
2022-10-03T05:25:38.869Z,94.16
2022-10-03T05:28:21.541Z,94.11
2022-10-03T05:30:58.044Z,94.14
2022-10-03T05:33:38.887Z,94.14
2022-10-03T05:36:19.178Z,94.05
2022-10-03T05:39:17.717Z,94.01
2022-10-03T05:42:17.943Z,93.82
2022-10-03T05:44:46.016Z,93.89
2022-10-03T05:47:41.664Z,93.74
2022-10-03T05:50:27.744Z,93.82
2022-10-03T05:53:10.934Z,93.69
2022-10-03T05:56:01.415Z,93.51
2022-10-03T05:58:47.572Z,93.51
2022-10-03T06:01:47.305Z,93.65
2022-10-03T06:04:55.402Z,93.59
2022-10-03T06:07:29.289Z,93.37
2022-10-03T06:10:39.628Z,93.08
2022-10-03T06:13:17.728Z,92.82
2022-10-03T06:16:00.128Z,92.55
2022-10-03T06:19:02.633Z,92.77
2022-10-03T06:21:53.037Z,93.59
2022-10-03T06:24:48.755Z,93.76
2022-10-03T06:27:53.241Z,92.20
2022-10-03T06:30:31.803Z,91.45
2022-10-03T06:33:38.799Z,91.71
2022-10-03T06:36:35.394Z,91.99
2022-10-03T06:39:45.692Z,92.62
2022-10-03T06:42:43.569Z,93.56
2022-10-03T06:46:00.206Z,94.23
2022-10-03T06:48:50.397Z,95.01
2022-10-03T06:51:42.130Z,95.26
2022-10-03T06:54:44.343Z,95.53
2022-10-03T06:57:34.860Z,95.86
2022-10-03T07:00:14.692Z,96.26
2022-10-03T07:03:10.871Z,96.62
2022-10-03T07:06:14.493Z,96.69
2022-10-03T07:09:06.742Z,96.62
2022-10-03T07:12:14.188Z,96.56
2022-10-03T07:15:08.172Z,96.56
2022-10-03T07:17:51.960Z,96.50
2022-10-03T07:21:03.468Z,96.38
2022-10-03T07:24:06.161Z,95.78
2022-10-03T07:27:04.410Z,95.14
2022-10-03T07:30:03.963Z,94.97
2022-10-03T07:32:57.846Z,94.92
2022-10-03T07:36:01.753Z,95.54
2022-10-03T07:38:58.904Z,96.49
2022-10-03T07:41:54.919Z,96.70
2022-10-03T07:44:57.872Z,97.06
2022-10-03T07:47:57.038Z,97.62
2022-10-03T07:50:49.812Z,98.40
2022-10-03T07:54:00.414Z,97.50
2022-10-03T07:56:48.496Z,96.47
2022-10-03T08:00:00.689Z,96.68
2022-10-03T08:02:44.427Z,97.54
2022-10-03T08:05:27.761Z,97.65
2022-10-03T08:08:21.711Z,97.57
2022-10-03T08:11:21.191Z,97.71
2022-10-03T08:14:06.320Z,97.71
2022-10-03T08:16:59.703Z,97.91
2022-10-03T08:19:50.523Z,96.25
2022-10-03T08:22:36.907Z,96.05
2022-10-03T08:25:24.464Z,96.20
2022-10-03T08:28:13.117Z,96.22
2022-10-03T08:31:00.469Z,95.11
2022-10-03T08:33:54.902Z,94.98
2022-10-03T08:36:52.096Z,94.65
2022-10-03T08:39:41.522Z,94.91
2022-10-03T08:42:30.715Z,95.41
2022-10-03T08:45:41.780Z,96.05
2022-10-03T08:48:37.073Z,95.60
2022-10-03T08:51:49.485Z,96.68
2022-10-03T08:54:44.350Z,96.13
2022-10-03T08:57:25.940Z,94.06
2022-10-03T09:00:08.040Z,92.95
2022-10-03T09:03:31.842Z,91.93
2022-10-03T09:06:27.516Z,90.89
2022-10-03T09:09:11.959Z,90.34
2022-10-03T09:12:05.500Z,90.20
2022-10-03T09:14:47.559Z,90.71
2022-10-03T09:17:32.856Z,91.27
2022-10-03T09:20:50.996Z,91.69
2022-10-03T09:23:49.847Z,92.05
2022-10-03T09:27:04.236Z,91.19
2022-10-03T09:29:53.497Z,91.32
2022-10-03T09:33:07.942Z,91.97
2022-10-03T09:35:56.154Z,91.84
2022-10-03T09:39:03.122Z,91.55
2022-10-03T09:42:16.170Z,91.00
2022-10-03T09:45:17.059Z,90.23
2022-10-03T09:48:09.572Z,89.55
2022-10-03T09:51:15.580Z,89.06
2022-10-03T09:54:23.055Z,88.86
2022-10-03T09:57:29.393Z,87.97
2022-10-03T10:00:16.659Z,87.53
2022-10-03T10:03:26.943Z,86.98
2022-10-03T10:06:38.537Z,86.28
2022-10-03T10:09:38.634Z,86.77
2022-10-03T10:12:39.719Z,86.94
2022-10-03T10:15:25.996Z,87.58
2022-10-03T10:18:29.672Z,87.95
2022-10-03T10:21:33.113Z,88.10
2022-10-03T10:24:25.083Z,88.28
2022-10-03T10:27:20.229Z,89.07
2022-10-03T10:30:09.207Z,90.45
2022-10-03T10:33:12.123Z,90.51
2022-10-03T10:36:15.816Z,89.07
2022-10-03T10:39:16.286Z,87.36
2022-10-03T10:42:16.342Z,87.35
2022-10-03T10:45:16.792Z,87.23
2022-10-03T10:48:25.646Z,86.34
2022-10-03T10:51:29.204Z,85.15
2022-10-03T10:54:38.510Z,84.25
2022-10-03T10:57:21.911Z,85.00
2022-10-03T11:00:21.938Z,84.79
2022-10-03T11:03:25.281Z,84.73
2022-10-03T11:06:46.416Z,85.17
2022-10-03T11:09:41.717Z,86.08
2022-10-03T11:12:46.177Z,87.05
2022-10-03T11:16:04.248Z,88.08
2022-10-03T11:19:17.229Z,88.14
2022-10-03T11:22:17.557Z,87.98
2022-10-03T11:25:22.235Z,86.63
2022-10-03T11:28:23.045Z,85.16
2022-10-03T11:31:37.474Z,84.36
2022-10-03T11:34:36.461Z,82.87
2022-10-03T11:37:18.273Z,83.72
2022-10-03T11:39:54.024Z,83.33
2022-10-03T11:42:32.815Z,83.23
2022-10-03T11:45:04.911Z,83.55
2022-10-03T11:47:42.837Z,84.19
2022-10-03T11:50:38.604Z,84.58
2022-10-03T11:53:19.155Z,84.36
2022-10-03T11:55:58.074Z,84.21
2022-10-03T11:58:38.009Z,84.14
2022-10-03T12:01:23.800Z,83.67
2022-10-03T12:03:59.542Z,83.63
2022-10-03T12:07:04.329Z,83.50
2022-10-03T12:09:45.114Z,82.67
2022-10-03T12:12:27.518Z,82.90
2022-10-03T12:15:03.494Z,82.82
2022-10-03T12:17:35.288Z,82.89
2022-10-03T12:20:17.457Z,82.50
2022-10-03T12:22:51.253Z,82.53
2022-10-03T12:25:25.731Z,82.15
2022-10-03T12:28:06.780Z,81.64
2022-10-03T12:30:47.012Z,81.81
2022-10-03T12:33:32.458Z,81.42
2022-10-03T12:36:09.333Z,80.66
2022-10-03T12:38:58.087Z,80.32
2022-10-03T12:41:45.097Z,79.91
2022-10-03T12:44:29.181Z,80.80
2022-10-03T12:47:13.883Z,80.21
2022-10-03T12:49:55.609Z,80.28
2022-10-03T12:52:31.038Z,80.28
2022-10-03T12:55:15.130Z,80.00
2022-10-03T12:58:17.403Z,79.92
2022-10-03T13:00:57.288Z,79.85
2022-10-03T13:03:44.837Z,80.22
2022-10-03T13:07:05.803Z,80.52
2022-10-03T13:09:58.510Z,80.51
2022-10-03T13:12:38.671Z,79.64
2022-10-03T13:15:43.614Z,78.88
2022-10-03T13:18:23.939Z,78.65
2022-10-03T13:21:00.315Z,78.74
2022-10-03T13:23:41.876Z,77.98
2022-10-03T13:26:18.454Z,77.68
2022-10-03T13:29:12.598Z,77.40
2022-10-03T13:31:55.440Z,77.59
2022-10-03T13:34:32.596Z,78.37
2022-10-03T13:37:14.137Z,78.75
2022-10-03T13:39:48.069Z,78.39
2022-10-03T13:42:28.010Z,78.46
2022-10-03T13:45:14.119Z,78.71
2022-10-03T13:47:51.393Z,78.93
2022-10-03T13:50:30.449Z,78.77
2022-10-03T13:53:13.072Z,78.12
2022-10-03T13:55:47.934Z,77.80
2022-10-03T13:58:31.961Z,78.08
2022-10-03T14:01:34.724Z,78.47
2022-10-03T14:04:34.166Z,79.66
2022-10-03T14:07:17.622Z,81.25
2022-10-03T14:10:13.514Z,82.10
2022-10-03T14:13:16.793Z,83.14
2022-10-03T14:15:52.482Z,83.91
2022-10-03T14:18:37.308Z,84.29
2022-10-03T14:21:38.999Z,84.80
2022-10-03T14:24:25.781Z,85.13
2022-10-03T14:27:20.815Z,85.73
2022-10-03T14:30:08.753Z,85.71
2022-10-03T14:33:01.583Z,85.97
2022-10-03T14:36:12.119Z,85.82
2022-10-03T14:39:10.841Z,85.79
2022-10-03T14:42:27.548Z,85.15
2022-10-03T14:45:07.304Z,85.08
2022-10-03T14:47:47.060Z,85.22
2022-10-03T14:50:29.300Z,85.25
2022-10-03T14:53:22.080Z,85.26
2022-10-03T14:56:03.125Z,85.62
2022-10-03T14:58:38.028Z,85.73
2022-10-03T15:01:15.297Z,86.18
2022-10-03T15:03:55.865Z,86.40
2022-10-03T15:06:56.721Z,86.59
2022-10-03T15:09:46.674Z,86.35
2022-10-03T15:12:23.566Z,86.41
2022-10-03T15:15:00.663Z,86.59
2022-10-03T15:17:43.348Z,86.74
2022-10-03T15:20:18.208Z,86.61
2022-10-03T15:22:52.254Z,86.75
2022-10-03T15:25:26.104Z,86.49
2022-10-03T15:27:57.800Z,86.55
2022-10-03T15:30:31.534Z,86.50
2022-10-03T15:33:24.611Z,86.71
2022-10-03T15:35:58.658Z,86.63
2022-10-03T15:38:38.015Z,86.90
2022-10-03T15:41:11.641Z,86.77
2022-10-03T15:43:56.541Z,86.69
2022-10-03T15:46:34.263Z,86.97
2022-10-03T15:49:15.913Z,87.47
2022-10-03T15:51:48.613Z,87.52
2022-10-03T15:54:29.606Z,87.28
2022-10-03T15:57:00.990Z,87.23
2022-10-03T15:59:34.830Z,87.41
2022-10-03T16:02:08.814Z,87.39
2022-10-03T16:04:37.702Z,87.42
2022-10-03T16:07:21.811Z,87.35
2022-10-03T16:09:55.673Z,87.26
2022-10-03T16:12:47.549Z,87.33
2022-10-03T16:15:21.959Z,87.25
2022-10-03T16:18:01.772Z,87.30
2022-10-03T16:20:41.506Z,87.25
2022-10-03T16:23:18.733Z,87.22
2022-10-03T16:25:54.727Z,87.04
2022-10-03T16:28:34.132Z,87.03
2022-10-03T16:31:18.395Z,87.32
2022-10-03T16:33:58.077Z,87.42
2022-10-03T16:36:28.739Z,87.84
2022-10-03T16:39:00.377Z,87.97
2022-10-03T16:41:32.306Z,88.34
2022-10-03T16:44:03.378Z,88.68
2022-10-03T16:46:35.374Z,89.05
2022-10-03T16:49:27.338Z,89.16
2022-10-03T16:52:01.853Z,89.46
2022-10-03T16:54:31.081Z,89.87
2022-10-03T16:57:03.092Z,89.92
2022-10-03T16:59:33.868Z,90.17
2022-10-03T17:02:06.247Z,90.20
2022-10-03T17:04:39.797Z,90.48
2022-10-03T17:07:17.638Z,90.61
2022-10-03T17:09:49.092Z,90.91
2022-10-03T17:12:23.369Z,91.12
2022-10-03T17:14:55.488Z,91.35
2022-10-03T17:17:32.200Z,91.44
2022-10-03T17:20:06.379Z,91.69
2022-10-03T17:22:40.702Z,91.98
2022-10-03T17:25:34.151Z,92.36
2022-10-03T17:28:06.127Z,92.75
2022-10-03T17:30:43.737Z,92.89
2022-10-03T17:33:19.136Z,93.06
2022-10-03T17:35:54.959Z,93.27
2022-10-03T17:38:48.949Z,93.45
2022-10-03T17:41:23.750Z,93.57
2022-10-03T17:44:04.177Z,93.55
2022-10-03T17:46:42.895Z,93.28
2022-10-03T17:49:24.933Z,93.24
2022-10-03T17:51:54.527Z,93.27
2022-10-03T17:54:29.385Z,93.39
2022-10-03T17:57:05.272Z,93.57
2022-10-03T17:59:43.656Z,93.62
2022-10-03T18:02:20.244Z,93.76
2022-10-03T18:04:56.788Z,93.80
2022-10-03T18:07:28.230Z,93.94
2022-10-03T18:09:57.478Z,93.94
2022-10-03T18:12:34.606Z,93.98
2022-10-03T18:15:34.943Z,94.11
2022-10-03T18:18:23.378Z,94.00
2022-10-03T18:21:00.915Z,93.82
2022-10-03T18:23:54.782Z,93.81
2022-10-03T18:26:34.473Z,93.65
2022-10-03T18:29:27.347Z,93.65
2022-10-03T18:32:20.002Z,93.53
2022-10-03T18:35:09.610Z,93.63
2022-10-03T18:38:19.834Z,93.50
2022-10-03T18:41:04.794Z,93.84
2022-10-03T18:43:44.526Z,93.96
2022-10-03T18:46:26.721Z,93.85
2022-10-03T18:49:31.941Z,93.76
2022-10-03T18:52:14.174Z,93.72
2022-10-03T18:54:56.373Z,93.57
2022-10-03T18:57:26.593Z,93.61
2022-10-03T19:00:04.873Z,93.80
2022-10-03T19:02:43.124Z,93.70
2022-10-03T19:05:24.758Z,93.62
2022-10-03T19:08:02.179Z,93.43
2022-10-03T19:10:38.987Z,93.18
2022-10-03T19:13:20.280Z,93.15
2022-10-03T19:16:17.375Z,92.80
2022-10-03T19:19:01.545Z,92.76
2022-10-03T19:21:36.082Z,92.67
2022-10-03T19:24:15.885Z,92.79
2022-10-03T19:26:49.533Z,92.81
2022-10-03T19:29:21.922Z,92.90
2022-10-03T19:32:06.931Z,92.95
2022-10-03T19:34:43.504Z,93.04
2022-10-03T19:37:33.347Z,92.98
2022-10-03T19:40:02.660Z,93.01
2022-10-03T19:42:45.992Z,93.04
2022-10-03T19:45:19.323Z,93.19
2022-10-03T19:47:58.238Z,93.28
2022-10-03T19:50:36.896Z,93.28
2022-10-03T19:53:15.697Z,93.25
2022-10-03T19:55:46.059Z,93.41
2022-10-03T19:58:24.514Z,93.45
2022-10-03T20:01:02.489Z,93.40
2022-10-03T20:03:37.711Z,93.40
2022-10-03T20:06:17.616Z,93.42
2022-10-03T20:08:52.690Z,93.52
2022-10-03T20:11:36.858Z,93.49
2022-10-03T20:14:06.811Z,93.48
2022-10-03T20:16:43.719Z,93.53
2022-10-03T20:19:14.642Z,93.64
2022-10-03T20:21:50.572Z,93.60
2022-10-03T20:24:28.303Z,93.65
2022-10-03T20:27:08.416Z,93.75
2022-10-03T20:29:42.352Z,93.76
2022-10-03T20:32:16.275Z,93.80
2022-10-03T20:34:52.339Z,93.80
2022-10-03T20:37:38.084Z,93.72
2022-10-03T20:40:25.309Z,93.75
2022-10-03T20:43:06.733Z,93.62
2022-10-03T20:45:37.041Z,93.66
2022-10-03T20:48:09.214Z,93.83
2022-10-03T20:50:43.047Z,93.60
2022-10-03T20:53:17.949Z,93.62
2022-10-03T20:55:49.450Z,93.57
2022-10-03T20:58:26.504Z,93.62
2022-10-03T21:01:00.644Z,93.85
2022-10-03T21:03:37.537Z,93.64
2022-10-03T21:06:17.431Z,93.64
2022-10-03T21:08:47.378Z,93.66
2022-10-03T21:11:22.217Z,93.74
2022-10-03T21:13:56.387Z,93.85
2022-10-03T21:16:29.039Z,94.04
2022-10-03T21:19:01.360Z,94.14
2022-10-03T21:21:38.438Z,94.35
2022-10-03T21:24:16.965Z,94.41
2022-10-03T21:26:48.502Z,94.35
2022-10-03T21:29:26.284Z,94.37
2022-10-03T21:32:06.933Z,94.40
2022-10-03T21:34:43.775Z,94.49
2022-10-03T21:37:19.546Z,94.51
2022-10-03T21:40:00.664Z,94.50
2022-10-03T21:42:35.322Z,94.59
2022-10-03T21:45:20.072Z,94.63
2022-10-03T21:47:51.026Z,94.62
2022-10-03T21:50:24.354Z,94.72
2022-10-03T21:53:05.262Z,94.81
2022-10-03T21:55:56.134Z,94.98
2022-10-03T21:58:57.536Z,95.05
2022-10-03T22:01:31.558Z,95.07
2022-10-03T22:04:05.725Z,95.11
2022-10-03T22:06:38.612Z,95.12
2022-10-03T22:09:13.991Z,95.16
2022-10-03T22:11:49.318Z,95.19
2022-10-03T22:14:29.882Z,95.29
2022-10-03T22:17:06.384Z,95.21
2022-10-03T22:19:39.576Z,95.20
2022-10-03T22:22:24.821Z,95.20
2022-10-03T22:25:05.637Z,95.21
2022-10-03T22:27:42.804Z,95.17
2022-10-03T22:30:14.586Z,95.24
2022-10-03T22:32:52.369Z,95.18
2022-10-03T22:35:46.762Z,95.24
2022-10-03T22:38:16.421Z,95.28
2022-10-03T22:40:47.287Z,95.28
2022-10-03T22:43:16.705Z,95.16
2022-10-03T22:45:48.918Z,95.14
2022-10-03T22:48:23.159Z,94.95
2022-10-03T22:50:52.897Z,95.06
2022-10-03T22:53:26.526Z,95.00
2022-10-03T22:55:58.199Z,94.91
2022-10-03T22:58:29.803Z,94.95
2022-10-03T23:01:00.828Z,94.93
2022-10-03T23:03:33.866Z,94.87
2022-10-03T23:06:23.989Z,94.83
2022-10-03T23:09:03.338Z,94.79
2022-10-03T23:11:34.090Z,94.66
2022-10-03T23:14:13.057Z,94.64
2022-10-03T23:16:52.315Z,94.57
2022-10-03T23:19:35.391Z,94.67
2022-10-03T23:22:12.584Z,94.77
2022-10-03T23:24:47.055Z,94.75
2022-10-03T23:27:32.586Z,94.66
2022-10-03T23:30:46.424Z,94.61
2022-10-03T23:33:39.137Z,94.52
2022-10-03T23:36:14.176Z,94.60
2022-10-03T23:38:59.897Z,94.55
2022-10-03T23:42:00.127Z,94.43
2022-10-03T23:44:37.111Z,94.54
2022-10-03T23:47:09.844Z,94.56
2022-10-03T23:49:41.004Z,94.34
2022-10-03T23:52:15.554Z,94.37
2022-10-03T23:54:45.888Z,94.40
2022-10-03T23:57:16.471Z,94.21
2022-10-03T23:59:46.329Z,94.32
